Time;durP1;ratioP1;P1;durP2;ratioP2;P2;SDS_P1;SDS_P2;PMS_P1;PMS_P2;Temp;Humidity;BMP_temperature;BMP_pressure;BME280_temperature;BME280_humidity;BME280_pressure;Samples;Min_cycle;Max_cycle;Signal;HPM_P1;HPM_P2
2023/05/15 00:02:00;;;;;;;14.20;7.10;;;;;;;15.48;50.56;100375.45;106128;1262;109279;-81
2023/05/15 00:04:46;;;;;;;12.00;6.70;;;;;;;15.46;50.91;100373.55;105915;1265;99500;-79
2023/05/15 00:07:31;;;;;;;8.80;6.30;;;;;;;15.42;51.01;100370.95;105872;1265;98990;-81
2023/05/15 00:10:17;;;;;;;9.50;6.70;;;;;;;15.41;51.01;100365.76;105978;1263;96604;-80
2023/05/15 00:13:02;;;;;;;11.70;6.70;;;;;;;15.39;51.12;100361.55;105458;1263;96592;-78
2023/05/15 00:15:48;;;;;;;9.60;6.50;;;;;;;15.37;51.26;100358.41;105288;1259;100568;-79
2023/05/15 00:18:34;;;;;;;9.00;6.10;;;;;;;15.35;51.46;100354.11;105265;1259;100314;-81
2023/05/15 00:21:19;;;;;;;10.60;6.10;;;;;;;15.32;51.46;100347.50;106054;1259;97793;-81
2023/05/15 00:24:05;;;;;;;12.60;6.80;;;;;;;15.29;51.63;100345.48;105903;1259;96536;-79
2023/05/15 00:26:50;;;;;;;11.30;6.60;;;;;;;15.30;51.66;100342.10;105165;1259;97249;-79
2023/05/15 00:29:36;;;;;;;12.20;6.60;;;;;;;15.29;51.86;100337.20;105972;1265;101308;-79
2023/05/15 00:32:21;;;;;;;9.10;6.20;;;;;;;15.25;51.89;100334.84;105469;1264;100394;-79
2023/05/15 00:35:07;;;;;;;10.40;6.60;;;;;;;15.23;52.11;100328.55;105388;1263;99052;-79
2023/05/15 00:37:52;;;;;;;11.10;7.40;;;;;;;15.21;52.30;100326.08;105448;1263;96607;-79
2023/05/15 00:40:38;;;;;;;9.30;6.30;;;;;;;15.20;52.06;100324.14;105440;1263;98400;-79
2023/05/15 00:43:25;;;;;;;10.30;6.50;;;;;;;15.20;52.25;100324.92;105411;1259;101197;-79
2023/05/15 00:46:13;;;;;;;12.40;8.20;;;;;;;15.20;52.15;100332.56;105389;1259;100341;-80
2023/05/15 00:48:59;;;;;;;9.80;6.60;;;;;;;15.20;52.18;100343.90;105372;1259;98585;-79
2023/05/15 00:51:44;;;;;;;10.50;6.70;;;;;;;15.21;52.29;100348.98;105388;1259;96682;-78
2023/05/15 00:54:30;;;;;;;11.80;6.50;;;;;;;15.23;52.51;100355.56;105310;1264;96534;-79
2023/05/15 00:57:16;;;;;;;12.20;7.90;;;;;;;15.24;52.70;100358.42;105394;1261;100005;-80
2023/05/15 01:00:05;;;;;;;10.10;7.40;;;;;;;15.24;52.84;100351.86;105384;1259;100330;-80
2023/05/15 01:02:53;;;;;;;13.80;7.50;;;;;;;15.25;52.87;100340.81;107020;1259;97754;-79
2023/05/15 01:05:39;;;;;;;13.20;7.20;;;;;;;15.22;52.84;100327.82;105297;1263;96611;-79
2023/05/15 01:08:42;;;;;;;11.00;7.60;;;;;;;15.14;52.91;100323.58;105402;1265;97053;-79
2023/05/15 01:11:35;;;;;;;8.50;6.70;;;;;;;15.11;53.25;100326.84;105488;1262;100056;-78
2023/05/15 01:14:20;;;;;;;9.80;7.70;;;;;;;15.10;53.22;100326.09;105287;1259;100372;-80
2023/05/15 01:17:06;;;;;;;8.90;7.00;;;;;;;15.09;53.47;100320.35;105310;1265;97743;-78
2023/05/15 01:19:55;;;;;;;11.80;6.70;;;;;;;15.08;53.59;100315.12;105370;1264;96626;-79
2023/05/15 01:23:05;;;;;;;12.20;6.30;;;;;;;15.06;53.77;100308.01;105403;1264;97145;-79
2023/05/15 01:26:02;;;;;;;13.20;6.70;;;;;;;15.00;53.61;100296.20;105884;1259;101721;-81
2023/05/15 01:28:58;;;;;;;10.10;6.20;;;;;;;14.94;53.74;100288.00;105969;1259;100353;-79
2023/05/15 01:31:49;;;;;;;15.80;6.90;;;;;;;14.91;53.82;100287.25;105894;1259;99055;-79
2023/05/15 01:34:44;;;;;;;11.70;6.50;;;;;;;14.89;53.90;100288.97;105398;1259;97051;-79
2023/05/15 01:37:32;;;;;;;11.80;7.20;;;;;;;14.88;53.78;100293.79;105376;1265;97257;-79
2023/05/15 01:40:21;;;;;;;9.50;5.70;;;;;;;14.90;53.75;100288.52;105436;1262;100913;-79
2023/05/15 01:43:10;;;;;;;14.50;5.50;;;;;;;14.91;53.89;100280.40;105490;1263;99701;-78
2023/05/15 01:45:57;;;;;;;11.90;5.70;;;;;;;14.88;54.01;100272.67;105365;1265;98540;-80
2023/05/15 01:48:45;;;;;;;9.30;6.10;;;;;;;14.82;54.11;100265.34;105476;1264;96820;-81
2023/05/15 01:51:32;;;;;;;10.20;6.20;;;;;;;14.74;54.46;100260.65;105417;1264;97199;-79
2023/05/15 01:54:18;;;;;;;10.90;5.40;;;;;;;14.66;54.73;100261.87;105171;1259;108582;-78
2023/05/15 01:57:05;;;;;;;7.80;5.20;;;;;;;14.66;54.59;100265.33;105390;1262;99645;-79
2023/05/15 01:59:52;;;;;;;8.20;5.00;;;;;;;14.68;54.43;100273.98;105410;1264;98987;-79
2023/05/15 02:02:39;;;;;;;9.50;5.40;;;;;;;14.70;54.45;100275.70;105349;1265;96540;-79
2023/05/15 02:05:25;;;;;;;9.30;4.70;;;;;;;14.73;54.22;100268.50;105425;1265;96955;-79
2023/05/15 02:08:12;;;;;;;9.00;5.00;;;;;;;14.75;54.42;100259.50;105470;1259;101267;-80
2023/05/15 02:10:59;;;;;;;10.20;5.10;;;;;;;14.76;54.64;100259.22;105311;1263;99225;-79
2023/05/15 02:13:46;;;;;;;9.20;5.50;;;;;;;14.74;54.97;100261.96;105330;1263;99481;-79
2023/05/15 02:16:32;;;;;;;9.70;5.00;;;;;;;14.73;54.85;100257.62;105322;1264;97530;-82
2023/05/15 02:19:17;;;;;;;7.70;4.60;;;;;;;14.72;54.87;100250.79;105903;1264;96413;-79
2023/05/15 02:22:02;;;;;;;7.60;4.80;;;;;;;14.71;54.82;100243.21;105377;1262;101325;-79
2023/05/15 02:24:48;;;;;;;10.40;4.70;;;;;;;14.71;54.82;100240.31;105394;1259;99064;-79
2023/05/15 02:27:47;;;;;;;7.90;4.30;;;;;;;14.72;54.68;100239.14;105363;1265;97742;-79
2023/05/15 02:30:56;;;;;;;6.90;4.00;;;;;;;14.73;54.45;100237.14;105301;1265;97219;-79
2023/05/15 02:34:02;;;;;;;6.10;4.10;;;;;;;14.75;54.29;100233.27;105525;1264;97688;-79
2023/05/15 02:36:50;;;;;;;6.60;4.00;;;;;;;14.78;54.38;100226.27;105518;1260;101249;-80
2023/05/15 02:39:39;;;;;;;5.80;4.10;;;;;;;14.79;54.40;100223.77;106034;1259;99081;-81
2023/05/15 02:42:30;;;;;;;6.60;4.00;;;;;;;14.79;54.44;100222.39;105941;1259;97737;-82
2023/05/15 02:45:15;;;;;;;6.00;4.00;;;;;;;14.81;54.50;100218.56;105972;1259;96517;-79
2023/05/15 02:48:03;;;;;;;7.60;4.50;;;;;;;14.83;54.42;100210.77;106187;1263;96615;-81
2023/05/15 02:50:51;;;;;;;12.40;4.90;;;;;;;14.85;54.38;100199.52;105917;1264;100789;-80
2023/05/15 02:53:41;;;;;;;6.50;3.70;;;;;;;14.86;54.32;100189.20;106133;1259;100830;-80
2023/05/15 02:56:26;;;;;;;8.50;4.10;;;;;;;14.86;54.15;100185.33;106018;1263;97787;-81
2023/05/15 02:59:17;;;;;;;6.60;4.40;;;;;;;14.87;54.35;100183.67;105525;1263;97861;-80
2023/05/15 03:02:02;;;;;;;7.90;4.20;;;;;;;14.87;54.40;100186.38;105610;1259;97187;-80
2023/05/15 03:04:48;;;;;;;7.30;4.00;;;;;;;14.87;54.32;100181.86;106023;1259;99950;-81
2023/05/15 03:07:33;;;;;;;5.60;4.10;;;;;;;14.88;54.23;100173.55;106118;1259;99638;-81
2023/05/15 03:10:22;;;;;;;6.90;3.50;;;;;;;14.89;53.94;100175.08;105963;1259;99020;-80
2023/05/15 03:13:08;;;;;;;5.20;3.70;;;;;;;14.92;53.92;100174.00;106080;1259;96499;-81
2023/05/15 03:15:53;;;;;;;6.80;3.70;;;;;;;14.93;53.99;100164.44;106070;1259;98251;-79
2023/05/15 03:18:38;;;;;;;6.60;3.50;;;;;;;14.95;54.08;100158.13;106035;1259;100850;-79
2023/05/15 03:21:24;;;;;;;6.90;3.70;;;;;;;14.95;54.09;100158.61;105963;1260;100379;-81
2023/05/15 03:24:10;;;;;;;4.50;3.40;;;;;;;14.96;54.19;100164.70;105956;1259;97820;-80
2023/05/15 03:26:55;;;;;;;6.80;4.10;;;;;;;14.95;54.05;100165.09;105973;1263;96629;-78
2023/05/15 03:29:42;;;;;;;10.00;4.30;;;;;;;14.94;53.95;100159.79;105376;1259;97143;-79
2023/05/15 03:32:27;;;;;;;7.30;4.30;;;;;;;14.95;53.96;100162.36;105225;1265;99896;-80
2023/05/15 03:35:13;;;;;;;7.90;4.30;;;;;;;14.96;54.10;100158.86;105404;1263;99082;-79
2023/05/15 03:37:58;;;;;;;3.80;3.30;;;;;;;14.97;54.12;100150.46;105484;1259;99522;-79
2023/05/15 03:40:44;;;;;;;3.20;2.90;;;;;;;14.95;54.49;100148.27;106170;1265;96694;-80
2023/05/15 03:43:30;;;;;;;8.70;3.70;;;;;;;14.95;54.79;100160.30;105984;1264;96697;-79
2023/05/15 03:46:15;;;;;;;7.50;4.50;;;;;;;14.95;54.82;100161.36;105425;1265;99986;-80
2023/05/15 03:49:01;;;;;;;8.80;4.00;;;;;;;14.94;55.05;100152.02;105433;1263;99123;-79
2023/05/15 03:51:46;;;;;;;4.40;3.30;;;;;;;14.95;55.66;100146.96;105519;1263;98660;-78
2023/05/15 03:54:33;;;;;;;6.10;3.70;;;;;;;14.93;56.37;100145.83;105478;1263;97523;-79
2023/05/15 03:57:18;;;;;;;6.30;3.70;;;;;;;14.90;56.67;100145.90;105515;1259;97877;-80
2023/05/15 04:00:08;;;;;;;9.80;3.50;;;;;;;14.89;57.46;100139.81;105441;1259;99972;-80
2023/05/15 04:02:57;;;;;;;6.20;3.60;;;;;;;14.83;57.53;100141.37;105414;1263;99192;-78
2023/05/15 04:05:43;;;;;;;10.00;4.10;;;;;;;14.79;58.23;100137.65;105402;1259;99029;-78
2023/05/15 04:08:29;;;;;;;6.50;3.60;;;;;;;14.77;58.92;100138.88;105314;1259;96802;-79
2023/05/15 04:11:15;;;;;;;5.70;4.20;;;;;;;14.73;59.76;100127.92;105405;1263;97396;-79
2023/05/15 04:14:00;;;;;;;8.10;4.20;;;;;;;14.68;60.17;100119.06;105312;1259;100830;-79
2023/05/15 04:16:46;;;;;;;6.10;4.00;;;;;;;14.64;61.17;100113.92;105387;1260;99115;-79
2023/05/15 04:19:31;;;;;;;7.90;4.60;;;;;;;14.55;61.71;100109.55;105446;1259;97719;-80
2023/05/15 04:22:17;;;;;;;5.80;4.70;;;;;;;14.49;62.54;100116.70;105463;1264;96631;-77
2023/05/15 04:25:03;;;;;;;8.50;4.80;;;;;;;14.47;63.46;100116.65;105576;1263;96525;-79
2023/05/15 04:27:49;;;;;;;8.50;5.20;;;;;;;14.46;63.79;100111.11;105562;1259;101272;-80
2023/05/15 04:30:34;;;;;;;5.90;5.10;;;;;;;14.41;64.88;100101.98;106011;1263;99256;-80
2023/05/15 04:33:19;;;;;;;7.70;4.80;;;;;;;14.33;65.90;100095.04;106027;1259;97822;-81
2023/05/15 04:36:06;;;;;;;8.20;6.00;;;;;;;14.23;66.87;100092.91;106065;1260;97925;-81
2023/05/15 04:38:51;;;;;;;15.40;5.90;;;;;;;14.08;67.84;100082.48;105646;1259;96535;-80
2023/05/15 04:41:37;;;;;;;5.70;5.10;;;;;;;13.90;67.80;100078.13;105654;1263;100009;-81
2023/05/15 04:44:23;;;;;;;8.70;6.10;;;;;;;13.72;68.28;100060.48;105617;1263;101139;-83
2023/05/15 04:47:09;;;;;;;7.50;6.10;;;;;;;13.55;68.80;100048.95;105570;1263;98428;-79
2023/05/15 04:49:55;;;;;;;7.50;5.40;;;;;;;13.43;68.43;100050.48;105395;1263;97152;-80
2023/05/15 04:52:41;;;;;;;7.90;6.50;;;;;;;13.35;68.72;100092.72;105426;1260;98370;-80
2023/05/15 04:55:27;;;;;;;9.90;6.50;;;;;;;13.34;69.68;100116.03;105453;1261;101238;-81
2023/05/15 04:58:13;;;;;;;9.60;6.20;;;;;;;13.35;70.03;100107.12;105574;1264;99657;-80
2023/05/15 05:00:59;;;;;;;10.80;6.60;;;;;;;13.41;69.82;100100.13;106033;1264;97695;-81
2023/05/15 05:03:44;;;;;;;9.10;6.10;;;;;;;13.48;70.11;100096.08;105925;1259;96606;-81
2023/05/15 05:06:30;;;;;;;14.60;5.90;;;;;;;13.52;70.47;100093.39;106057;1259;96410;-81
2023/05/15 05:09:18;;;;;;;10.90;6.40;;;;;;;13.57;70.35;100090.89;106005;1259;100844;-81
2023/05/15 05:12:04;;;;;;;9.80;5.90;;;;;;;13.61;70.76;100084.92;105852;1259;99162;-80
2023/05/15 05:14:50;;;;;;;13.00;7.20;;;;;;;13.63;71.59;100082.09;105231;1265;97732;-80
2023/05/15 05:17:35;;;;;;;10.40;6.70;;;;;;;13.64;71.87;100069.48;105543;1263;96640;-81
2023/05/15 05:20:21;;;;;;;9.60;6.30;;;;;;;13.62;72.64;100058.91;105367;1264;98024;-79
2023/05/15 05:23:06;;;;;;;7.50;6.10;;;;;;;13.58;73.34;100054.76;105878;1259;101255;-79
2023/05/15 05:25:52;;;;;;;11.00;6.70;;;;;;;13.50;73.82;100042.16;105880;1263;100415;-80
2023/05/15 05:28:38;;;;;;;11.50;7.10;;;;;;;13.45;74.13;100040.21;105724;1264;99048;-80
2023/05/15 05:31:23;;;;;;;10.60;6.60;;;;;;;13.39;74.16;100034.04;105725;1260;96604;-80
2023/05/15 05:34:09;;;;;;;7.40;6.60;;;;;;;13.37;74.72;100025.20;105199;1264;96613;-79
2023/05/15 05:36:55;;;;;;;9.60;6.80;;;;;;;13.34;75.16;100031.61;105246;1263;99975;-79
2023/05/15 05:39:40;;;;;;;7.60;6.10;;;;;;;13.33;74.78;100036.86;105305;1265;108853;-78
2023/05/15 05:42:25;;;;;;;7.70;6.20;;;;;;;13.34;74.79;100037.70;105396;1259;97837;-80
2023/05/15 05:45:11;;;;;;;10.00;6.30;;;;;;;13.36;75.13;100036.26;105466;1263;96613;-81
2023/05/15 05:47:57;;;;;;;8.30;6.70;;;;;;;13.38;75.03;100039.44;105977;1264;97147;-79
2023/05/15 05:50:42;;;;;;;9.80;6.20;;;;;;;13.41;75.55;100042.60;105381;1264;99978;-79
2023/05/15 05:53:28;;;;;;;7.40;6.60;;;;;;;13.42;75.63;100042.30;105359;1264;99087;-79
2023/05/15 05:56:13;;;;;;;8.10;6.40;;;;;;;13.45;75.76;100045.00;105309;1259;98571;-80
2023/05/15 05:59:00;;;;;;;9.10;6.60;;;;;;;13.47;76.02;100051.94;105294;1268;96556;-80
2023/05/15 06:01:47;;;;;;;8.10;6.60;;;;;;;13.47;76.01;100053.46;105282;1265;97134;-79
2023/05/15 06:04:33;;;;;;;7.60;6.20;;;;;;;13.49;76.44;100052.46;105335;1264;100077;-79
2023/05/15 06:07:19;;;;;;;12.70;7.30;;;;;;;13.51;76.81;100052.63;105340;1260;99318;-81
2023/05/15 06:10:08;;;;;;;9.10;6.50;;;;;;;13.51;76.59;100053.71;105582;1265;99151;-80
2023/05/15 06:12:53;;;;;;;8.00;7.20;;;;;;;13.52;76.95;100059.81;105582;1271;97428;-81
2023/05/15 06:15:39;;;;;;;8.90;6.90;;;;;;;13.54;77.20;100059.02;105515;1263;97074;-81
2023/05/15 06:18:25;;;;;;;9.30;7.70;;;;;;;13.56;77.44;100059.29;105455;1265;99977;-81
2023/05/15 06:21:11;;;;;;;10.40;7.00;;;;;;;13.58;77.83;100061.30;105469;1263;99738;-80
2023/05/15 06:23:57;;;;;;;10.20;7.60;;;;;;;13.60;77.95;100057.52;105556;1273;99402;-81
2023/05/15 06:26:42;;;;;;;9.90;7.60;;;;;;;13.63;78.52;100056.29;106089;1261;96614;-80
2023/05/15 06:29:28;;;;;;;9.00;7.60;;;;;;;13.63;79.07;100053.19;106107;1263;98276;-80
2023/05/15 06:32:13;;;;;;;12.80;7.80;;;;;;;13.62;79.36;100052.41;105985;1263;99985;-80
2023/05/15 06:34:59;;;;;;;12.20;8.20;;;;;;;13.61;79.82;100044.72;105532;1267;100352;-80
2023/05/15 06:37:49;;;;;;;12.20;9.10;;;;;;;13.58;80.20;100045.65;105518;1260;97725;-81
2023/05/15 06:40:34;;;;;;;12.70;8.80;;;;;;;13.52;80.54;100042.27;105781;1263;97503;-79
2023/05/15 06:43:20;;;;;;;10.60;8.50;;;;;;;13.44;80.75;100040.14;105283;1263;97100;-79
2023/05/15 06:46:05;;;;;;;9.90;8.60;;;;;;;13.39;80.98;100039.05;105254;1263;101410;-78
2023/05/15 06:48:51;;;;;;;12.80;8.70;;;;;;;13.37;81.00;100036.34;105229;1261;99295;-79
2023/05/15 06:51:36;;;;;;;13.70;10.20;;;;;;;13.34;81.52;100035.54;105294;1263;97735;-78
2023/05/15 06:54:22;;;;;;;10.10;8.10;;;;;;;13.34;82.09;100038.10;105302;1263;97182;-78
2023/05/15 06:57:07;;;;;;;12.50;8.10;;;;;;;13.34;82.27;100035.66;105319;1265;97151;-78
2023/05/15 06:59:53;;;;;;;11.60;9.00;;;;;;;13.36;82.60;100033.83;105217;1260;101326;-78
2023/05/15 07:02:39;;;;;;;12.60;9.50;;;;;;;13.38;82.92;100037.27;105355;1263;99134;-80
2023/05/15 07:05:24;;;;;;;14.00;10.40;;;;;;;13.41;83.04;100039.39;105270;1273;97850;-78
2023/05/15 07:08:10;;;;;;;15.20;10.30;;;;;;;13.44;83.32;100038.95;105328;1265;96731;-84
2023/05/15 07:10:55;;;;;;;11.10;10.00;;;;;;;13.47;83.58;100037.33;105532;1259;96601;-81
2023/05/15 07:13:41;;;;;;;12.40;9.80;;;;;;;13.49;83.79;100030.77;106197;1263;100029;-86
2023/05/15 07:16:29;;;;;;;16.40;10.10;;;;;;;13.51;84.42;100027.61;105994;1263;100368;-88
2023/05/15 07:19:21;;;;;;;11.10;10.00;;;;;;;13.53;84.18;100025.73;106161;1264;97746;-89
2023/05/15 07:22:07;;;;;;;11.70;10.20;;;;;;;13.56;84.48;100028.58;106145;1268;96620;-88
2023/05/15 07:24:53;;;;;;;15.10;9.40;;;;;;;13.59;84.75;100028.64;106155;1264;96625;-88
2023/05/15 07:27:39;;;;;;;13.90;9.50;;;;;;;13.61;84.61;100020.45;106134;1261;99986;-86
2023/05/15 07:30:24;;;;;;;11.90;10.60;;;;;;;13.63;84.56;100012.40;105918;1263;100497;-82
2023/05/15 07:33:10;;;;;;;12.10;9.70;;;;;;;13.65;84.76;100009.61;106180;1263;97707;-87
2023/05/15 07:35:56;;;;;;;12.80;9.30;;;;;;;13.67;84.84;100006.45;106200;1260;96552;-89
2023/05/15 07:38:42;;;;;;;13.60;10.00;;;;;;;13.69;84.69;99999.59;106284;1266;97055;-88
2023/05/15 07:41:29;;;;;;;12.30;9.20;;;;;;;13.68;84.60;99996.67;106095;1264;100156;-79
2023/05/15 07:44:14;;;;;;;13.60;9.10;;;;;;;13.67;85.02;99992.70;105704;1262;100531;-79
2023/05/15 07:47:00;;;;;;;17.00;9.60;;;;;;;13.68;85.35;99995.88;105641;1263;97762;-79
2023/05/15 07:49:46;;;;;;;13.30;9.30;;;;;;;13.69;85.19;100000.02;105600;1263;96544;-78
2023/05/15 07:52:31;;;;;;;11.70;8.00;;;;;;;13.69;85.17;99998.92;105892;1259;97071;-79
2023/05/15 07:55:17;;;;;;;14.40;8.30;;;;;;;13.66;85.07;100000.34;105999;1260;99967;-81
2023/05/15 07:58:03;;;;;;;12.20;9.00;;;;;;;13.65;85.37;100000.71;106264;1263;99115;-84
2023/05/15 08:00:49;;;;;;;10.80;7.90;;;;;;;13.62;85.49;99996.09;105895;1262;98674;-83
2023/05/15 08:03:35;;;;;;;18.70;14.50;;;;;;;13.61;85.61;99991.48;105837;1264;96756;-84
2023/05/15 08:06:20;;;;;;;15.00;10.50;;;;;;;13.57;85.30;99984.92;105874;1263;96646;-79
2023/05/15 08:09:06;;;;;;;18.20;9.90;;;;;;;13.55;85.68;99978.57;105707;1260;100715;-84
2023/05/15 08:11:55;;;;;;;10.40;8.00;;;;;;;13.55;85.71;99974.59;105977;1261;100596;-85
2023/05/15 08:14:40;;;;;;;12.60;8.10;;;;;;;13.52;85.72;99966.02;106092;1267;98761;-83
2023/05/15 08:17:26;;;;;;;14.00;9.20;;;;;;;13.46;85.60;99961.59;105956;1264;96789;-86
2023/05/15 08:20:12;;;;;;;16.60;11.50;;;;;;;13.45;86.06;99962.73;106010;1261;98201;-85
2023/05/15 08:22:58;;;;;;;12.50;9.60;;;;;;;13.42;86.10;99957.00;105878;1260;100080;-86
2023/05/15 08:25:43;;;;;;;24.70;15.00;;;;;;;13.38;86.13;99951.48;105824;1264;100503;-84
2023/05/15 08:28:29;;;;;;;19.10;12.60;;;;;;;13.34;86.40;99953.92;105974;1261;97742;-86
2023/05/15 08:31:15;;;;;;;18.30;13.40;;;;;;;13.30;86.82;99953.79;106072;1261;96530;-82
2023/05/15 08:34:01;;;;;;;15.70;12.00;;;;;;;13.26;87.11;99957.77;106088;1264;97068;-79
2023/05/15 08:36:46;;;;;;;20.40;14.40;;;;;;;13.24;87.29;99943.74;105566;1260;99955;-80
2023/05/15 08:39:32;;;;;;;19.30;14.20;;;;;;;13.18;87.59;99932.42;105660;1264;99098;-83
2023/05/15 08:42:27;;;;;;;13.10;10.00;;;;;;;13.13;88.03;99921.70;106191;1264;97758;-86
2023/05/15 08:45:13;;;;;;;21.30;13.90;;;;;;;13.09;88.51;99933.64;106135;1261;96588;-89
2023/05/15 08:48:00;;;;;;;21.70;14.30;;;;;;;13.05;89.20;99939.63;106284;1266;96693;-87
2023/05/15 08:50:47;;;;;;;16.20;11.70;;;;;;;13.02;89.41;99939.80;106171;1261;101264;-87
2023/05/15 08:53:32;;;;;;;18.70;13.60;;;;;;;13.00;89.68;99935.25;106100;1261;99134;-85
2023/05/15 08:56:18;;;;;;;17.20;10.70;;;;;;;13.01;89.98;99936.79;105557;1267;97724;-87
2023/05/15 08:59:04;;;;;;;12.70;9.80;;;;;;;13.01;90.28;99937.81;105904;1259;96513;-87
2023/05/15 09:01:51;;;;;;;15.10;10.60;;;;;;;13.02;90.87;99936.23;105843;1264;97132;-86
2023/05/15 09:04:37;;;;;;;11.70;10.40;;;;;;;13.03;90.89;99933.38;105951;1262;109482;-86
2023/05/15 09:07:23;;;;;;;12.90;10.00;;;;;;;13.05;90.95;99933.92;105977;1261;100399;-80
2023/05/15 09:10:08;;;;;;;13.80;11.10;;;;;;;13.06;91.31;99933.02;106675;1261;97721;-79
2023/05/15 09:12:56;;;;;;;12.00;10.80;;;;;;;13.09;91.79;99929.61;105961;1260;96648;-87
2023/05/15 09:15:44;;;;;;;12.90;10.30;;;;;;;13.16;92.29;99929.84;105821;1259;96594;-85
2023/05/15 09:18:31;;;;;;;13.70;10.30;;;;;;;13.23;92.49;99923.27;105930;1261;100078;-87
2023/05/15 09:21:35;;;;;;;15.10;10.10;;;;;;;13.29;92.53;99920.29;106223;1261;99987;-87
2023/05/15 09:24:27;;;;;;;11.40;9.70;;;;;;;13.33;92.36;99918.39;105906;1261;97932;-86
2023/05/15 09:27:13;;;;;;;12.50;10.90;;;;;;;13.37;92.63;99911.02;106086;1260;96572;-86
2023/05/15 09:30:08;;;;;;;11.90;10.80;;;;;;;13.41;92.52;99912.98;106581;1264;98449;-81
2023/05/15 09:32:55;;;;;;;13.60;11.20;;;;;;;13.43;92.21;99907.74;106801;1260;99993;-81
2023/05/15 09:35:41;;;;;;;12.40;9.80;;;;;;;13.47;92.44;99905.42;105995;1264;99100;-81
2023/05/15 09:38:26;;;;;;;12.20;10.70;;;;;;;13.50;92.53;99904.90;106050;1264;99466;-81
2023/05/15 09:41:11;;;;;;;15.60;11.30;;;;;;;13.53;92.53;99906.10;105827;1261;97283;-81
2023/05/15 09:43:57;;;;;;;12.90;10.90;;;;;;;13.54;92.66;99906.85;105966;1264;96655;-82
2023/05/15 09:46:42;;;;;;;13.80;10.10;;;;;;;13.54;92.53;99903.86;105947;1260;101324;-82
2023/05/15 09:49:28;;;;;;;14.80;10.00;;;;;;;13.52;92.69;99896.60;105930;1264;99087;-81
2023/05/15 09:52:15;;;;;;;13.60;9.80;;;;;;;13.49;92.81;99889.41;106040;1259;98977;-82
2023/05/15 09:55:00;;;;;;;12.40;10.90;;;;;;;13.48;92.83;99882.64;105859;1260;96582;-83
2023/05/15 09:58:06;;;;;;;13.70;10.80;;;;;;;13.49;92.92;99883.17;105934;1263;97144;-81
2023/05/15 10:00:52;;;;;;;14.00;12.00;;;;;;;13.50;93.05;99887.46;105995;1261;99983;-81
2023/05/15 10:03:41;;;;;;;17.50;12.70;;;;;;;13.49;92.93;99887.47;105873;1259;99112;-82
2023/05/15 10:06:34;;;;;;;14.80;11.50;;;;;;;13.48;93.21;99883.67;105852;1259;97753;-81
2023/05/15 10:09:20;;;;;;;16.40;14.10;;;;;;;13.47;93.20;99881.16;106012;1260;96528;-81
2023/05/15 10:12:08;;;;;;;23.30;15.90;;;;;;;13.44;93.23;99883.06;106027;1263;97299;-79
2023/05/15 10:14:57;;;;;;;17.40;12.30;;;;;;;13.41;93.26;99883.84;105977;1264;100845;-83
2023/05/15 10:17:45;;;;;;;14.40;11.20;;;;;;;13.38;93.46;99880.30;105987;1261;100641;-80
2023/05/15 10:20:34;;;;;;;13.10;10.60;;;;;;;13.40;93.77;99877.98;106016;1260;98443;-81
2023/05/15 10:23:21;;;;;;;13.70;11.40;;;;;;;13.39;93.68;99883.39;105960;1261;96552;-82
2023/05/15 10:26:40;;;;;;;13.00;11.50;;;;;;;13.40;94.12;99879.08;106034;1260;96501;-81
2023/05/15 10:29:28;;;;;;;20.90;15.10;;;;;;;13.40;94.22;99878.59;105914;1261;100721;-81
2023/05/15 10:32:14;;;;;;;29.60;20.30;;;;;;;13.37;94.28;99883.99;105932;1260;99117;-82
2023/05/15 10:35:01;;;;;;;21.30;16.20;;;;;;;13.35;94.70;99885.30;105799;1263;97747;-81
2023/05/15 10:37:48;;;;;;;18.50;13.60;;;;;;;13.34;95.14;99885.94;105925;1264;96527;-82
2023/05/15 10:40:36;;;;;;;14.40;12.30;;;;;;;13.35;95.46;99890.39;105929;1260;96655;-81
2023/05/15 10:43:23;;;;;;;14.50;11.70;;;;;;;13.36;95.49;99893.78;105952;1261;100019;-81
2023/05/15 10:46:09;;;;;;;14.60;12.10;;;;;;;13.34;95.97;99892.05;106126;1260;99109;-82
2023/05/15 10:48:56;;;;;;;14.80;12.00;;;;;;;13.33;96.35;99884.61;105796;1259;97736;-81
2023/05/15 10:51:42;;;;;;;15.60;11.80;;;;;;;13.32;96.48;99887.27;105810;1265;96619;-81
2023/05/15 10:54:28;;;;;;;18.10;12.10;;;;;;;13.30;96.47;99885.80;105939;1259;97902;-82
2023/05/15 10:57:14;;;;;;;15.70;12.50;;;;;;;13.30;97.02;99879.14;105971;1262;101783;-81
2023/05/15 11:00:00;;;;;;;14.20;12.70;;;;;;;13.32;97.41;99871.43;105913;1259;100411;-81
2023/05/15 11:02:46;;;;;;;18.40;13.50;;;;;;;13.34;97.75;99874.30;105895;1260;97798;-82
2023/05/15 11:06:12;;;;;;;15.30;13.50;;;;;;;13.35;98.16;99877.19;105891;1263;97840;-82
2023/05/15 11:09:20;;;;;;;15.70;12.90;;;;;;;13.39;98.44;99867.63;105925;1259;97785;-82
2023/05/15 11:12:08;;;;;;;17.20;12.80;;;;;;;13.44;98.90;99861.88;105952;1259;101408;-82
2023/05/15 11:14:57;;;;;;;13.40;12.00;;;;;;;13.46;98.81;99862.73;106023;1263;99083;-89
2023/05/15 11:18:02;;;;;;;14.10;12.60;;;;;;;13.48;99.15;99857.32;105869;1261;97879;-86
2023/05/15 11:20:53;;;;;;;15.80;11.80;;;;;;;13.51;99.16;99852.35;106110;1259;96712;-87
2023/05/15 11:23:40;;;;;;;13.70;12.30;;;;;;;13.55;99.74;99852.46;106023;1259;96733;-84
2023/05/15 11:26:33;;;;;;;12.50;11.10;;;;;;;13.60;99.91;99851.10;105936;1264;101342;-80
2023/05/15 11:29:18;;;;;;;13.90;10.60;;;;;;;13.61;99.98;99848.52;106052;1259;99086;-85
2023/05/15 11:32:30;;;;;;;13.30;10.70;;;;;;;13.63;99.89;99847.59;105860;1259;97720;-86
2023/05/15 11:35:28;;;;;;;11.60;9.90;;;;;;;13.61;99.94;99843.97;106153;1259;96622;-87
2023/05/15 11:38:23;;;;;;;11.00;9.90;;;;;;;13.61;99.97;99837.95;106042;1259;97153;-87
2023/05/15 11:41:20;;;;;;;10.00;9.00;;;;;;;13.65;100.00;99841.56;105997;1260;108616;-87
2023/05/15 11:44:06;;;;;;;9.90;8.90;;;;;;;13.65;100.00;99840.02;105720;1260;100377;-86
2023/05/15 11:46:52;;;;;;;11.90;9.50;;;;;;;13.65;100.00;99835.55;105897;1260;97758;-88
2023/05/15 11:49:38;;;;;;;11.50;10.20;;;;;;;13.65;100.00;99832.94;105890;1268;96614;-87
2023/05/15 11:52:26;;;;;;;10.80;9.50;;;;;;;13.67;100.00;99830.92;105936;1261;96638;-87
2023/05/15 11:55:12;;;;;;;11.80;8.80;;;;;;;13.72;100.00;99828.05;106213;1263;99983;-89
2023/05/15 11:57:59;;;;;;;11.30;10.10;;;;;;;13.76;100.00;99825.35;105986;1264;100291;-88
2023/05/15 12:00:47;;;;;;;10.90;9.80;;;;;;;13.75;100.00;99826.94;106029;1266;97725;-87
2023/05/15 12:03:34;;;;;;;10.60;9.40;;;;;;;13.75;100.00;99822.38;106174;1266;96504;-79
2023/05/15 12:06:23;;;;;;;9.70;8.50;;;;;;;13.79;100.00;99819.89;106233;1259;95695;-87
2023/05/15 12:09:26;;;;;;;10.60;8.30;;;;;;;13.81;100.00;99813.86;106419;1259;101439;-88
2023/05/15 12:12:13;;;;;;;10.50;9.10;;;;;;;13.85;100.00;99813.89;106524;1263;99761;-88
2023/05/15 12:14:59;;;;;;;9.90;8.90;;;;;;;13.92;100.00;99810.05;106524;1259;98620;-88
2023/05/15 12:17:45;;;;;;;9.50;8.40;;;;;;;13.95;100.00;99809.53;106559;1259;96717;-88
2023/05/15 12:20:32;;;;;;;9.70;8.80;;;;;;;13.96;100.00;99805.30;105807;1260;97163;-78
2023/05/15 12:23:24;;;;;;;9.20;8.40;;;;;;;13.97;100.00;99804.26;105776;1259;101370;-79
2023/05/15 12:26:10;;;;;;;10.30;9.40;;;;;;;13.94;100.00;99806.44;105857;1261;100377;-84
2023/05/15 12:28:57;;;;;;;10.80;9.70;;;;;;;13.92;100.00;99814.14;106133;1259;99003;-85
2023/05/15 12:31:43;;;;;;;10.50;9.50;;;;;;;13.92;100.00;99805.86;106388;1263;96621;-88
2023/05/15 12:34:29;;;;;;;10.80;9.20;;;;;;;13.91;100.00;99800.06;106377;1259;95925;-87
2023/05/15 12:37:19;;;;;;;10.20;8.80;;;;;;;13.92;100.00;99795.66;106170;1261;100024;-87
2023/05/15 12:40:10;;;;;;;10.10;9.10;;;;;;;13.93;100.00;99790.64;106476;1259;99804;-88
2023/05/15 12:42:56;;;;;;;;;;;;;;;13.95;100.00;99788.25;105897;1264;99008;-87
2023/05/15 12:45:42;;;;;;;11.30;10.10;;;;;;;13.94;100.00;99783.16;106151;1259;97723;-89